sensor_id;sensor_type;location;lat;lon;timestamp;P1;durP1;ratioP1;P2;durP2;ratioP2
23988;SDS011;12202;52.136;5.592;2022-07-29T00:01:52;4.15;;;1.80;;
23988;SDS011;12202;52.136;5.592;2022-07-29T00:04:18;8.48;;;2.25;;
23988;SDS011;12202;52.136;5.592;2022-07-29T00:06:44;6.90;;;2.67;;
23988;SDS011;12202;52.136;5.592;2022-07-29T00:09:10;3.15;;;2.17;;
23988;SDS011;12202;52.136;5.592;2022-07-29T00:11:36;2.85;;;2.20;;
23988;SDS011;12202;52.136;5.592;2022-07-29T00:14:04;4.82;;;2.53;;
23988;SDS011;12202;52.136;5.592;2022-07-29T00:16:30;5.60;;;2.38;;
23988;SDS011;12202;52.136;5.592;2022-07-29T00:18:56;9.10;;;2.95;;
23988;SDS011;12202;52.136;5.592;2022-07-29T00:21:22;4.30;;;2.08;;
23988;SDS011;12202;52.136;5.592;2022-07-29T00:23:48;5.75;;;2.53;;
23988;SDS011;12202;52.136;5.592;2022-07-29T00:26:13;4.53;;;2.42;;
23988;SDS011;12202;52.136;5.592;2022-07-29T00:28:39;2.80;;;2.30;;
23988;SDS011;12202;52.136;5.592;2022-07-29T00:31:05;4.00;;;2.00;;
23988;SDS011;12202;52.136;5.592;2022-07-29T00:33:32;7.57;;;2.50;;
23988;SDS011;12202;52.136;5.592;2022-07-29T00:35:58;3.90;;;2.50;;
23988;SDS011;12202;52.136;5.592;2022-07-29T00:38:24;5.55;;;2.40;;
23988;SDS011;12202;52.136;5.592;2022-07-29T00:40:50;5.60;;;2.30;;
23988;SDS011;12202;52.136;5.592;2022-07-29T00:43:16;6.57;;;2.35;;
23988;SDS011;12202;52.136;5.592;2022-07-29T00:45:42;3.50;;;2.17;;
23988;SDS011;12202;52.136;5.592;2022-07-29T00:48:09;6.43;;;2.53;;
23988;SDS011;12202;52.136;5.592;2022-07-29T00:50:35;5.57;;;2.45;;
23988;SDS011;12202;52.136;5.592;2022-07-29T00:53:02;4.63;;;2.53;;
23988;SDS011;12202;52.136;5.592;2022-07-29T00:55:28;4.25;;;2.25;;
23988;SDS011;12202;52.136;5.592;2022-07-29T00:57:54;5.78;;;2.38;;
23988;SDS011;12202;52.136;5.592;2022-07-29T01:00:21;7.97;;;2.83;;
23988;SDS011;12202;52.136;5.592;2022-07-29T01:02:48;6.80;;;2.15;;
23988;SDS011;12202;52.136;5.592;2022-07-29T01:05:14;6.20;;;2.30;;
23988;SDS011;12202;52.136;5.592;2022-07-29T01:07:40;3.78;;;2.50;;
23988;SDS011;12202;52.136;5.592;2022-07-29T01:10:07;5.68;;;2.42;;
23988;SDS011;12202;52.136;5.592;2022-07-29T01:12:34;12.25;;;3.08;;
23988;SDS011;12202;52.136;5.592;2022-07-29T01:15:01;7.65;;;2.72;;
23988;SDS011;12202;52.136;5.592;2022-07-29T01:17:50;7.30;;;2.67;;
23988;SDS011;12202;52.136;5.592;2022-07-29T01:20:20;5.95;;;2.63;;
23988;SDS011;12202;52.136;5.592;2022-07-29T01:28:53;7.63;;;2.78;;
23988;SDS011;12202;52.136;5.592;2022-07-29T01:30:53;12.25;;;2.63;;
23988;SDS011;12202;52.136;5.592;2022-07-29T01:33:19;7.82;;;3.10;;
23988;SDS011;12202;52.136;5.592;2022-07-29T01:36:07;6.15;;;2.95;;
23988;SDS011;12202;52.136;5.592;2022-07-29T01:38:36;7.88;;;3.25;;
23988;SDS011;12202;52.136;5.592;2022-07-29T01:41:08;8.85;;;3.03;;
23988;SDS011;12202;52.136;5.592;2022-07-29T01:43:44;7.97;;;3.58;;
23988;SDS011;12202;52.136;5.592;2022-07-29T01:46:17;5.60;;;3.13;;
23988;SDS011;12202;52.136;5.592;2022-07-29T01:48:46;7.05;;;3.22;;
23988;SDS011;12202;52.136;5.592;2022-07-29T01:51:20;9.23;;;3.20;;
23988;SDS011;12202;52.136;5.592;2022-07-29T01:56:18;4.57;;;2.75;;
23988;SDS011;12202;52.136;5.592;2022-07-29T01:58:45;7.32;;;3.33;;
23988;SDS011;12202;52.136;5.592;2022-07-29T02:01:11;6.75;;;3.63;;
23988;SDS011;12202;52.136;5.592;2022-07-29T02:03:38;3.53;;;3.00;;
23988;SDS011;12202;52.136;5.592;2022-07-29T02:06:06;5.88;;;3.00;;
23988;SDS011;12202;52.136;5.592;2022-07-29T02:08:33;6.88;;;3.50;;
23988;SDS011;12202;52.136;5.592;2022-07-29T02:11:00;6.80;;;3.78;;
23988;SDS011;12202;52.136;5.592;2022-07-29T02:13:27;5.78;;;3.15;;
23988;SDS011;12202;52.136;5.592;2022-07-29T02:15:55;5.00;;;3.53;;
23988;SDS011;12202;52.136;5.592;2022-07-29T02:18:22;8.38;;;4.28;;
23988;SDS011;12202;52.136;5.592;2022-07-29T02:20:49;5.47;;;3.70;;
23988;SDS011;12202;52.136;5.592;2022-07-29T02:23:18;5.55;;;3.25;;
23988;SDS011;12202;52.136;5.592;2022-07-29T02:25:44;6.50;;;3.42;;
23988;SDS011;12202;52.136;5.592;2022-07-29T02:28:13;8.45;;;3.42;;
23988;SDS011;12202;52.136;5.592;2022-07-29T02:30:40;5.03;;;3.67;;
23988;SDS011;12202;52.136;5.592;2022-07-29T02:33:08;7.95;;;3.38;;
23988;SDS011;12202;52.136;5.592;2022-07-29T02:35:34;8.23;;;3.55;;
23988;SDS011;12202;52.136;5.592;2022-07-29T02:38:00;6.93;;;4.20;;
23988;SDS011;12202;52.136;5.592;2022-07-29T02:40:46;7.57;;;3.97;;
23988;SDS011;12202;52.136;5.592;2022-07-29T02:43:12;5.13;;;3.90;;
23988;SDS011;12202;52.136;5.592;2022-07-29T02:45:39;7.70;;;4.47;;
23988;SDS011;12202;52.136;5.592;2022-07-29T02:48:06;9.82;;;3.78;;
23988;SDS011;12202;52.136;5.592;2022-07-29T02:50:37;4.95;;;3.72;;
23988;SDS011;12202;52.136;5.592;2022-07-29T02:53:08;7.57;;;3.65;;
23988;SDS011;12202;52.136;5.592;2022-07-29T02:55:45;5.65;;;3.63;;
23988;SDS011;12202;52.136;5.592;2022-07-29T03:00:40;7.43;;;3.60;;
23988;SDS011;12202;52.136;5.592;2022-07-29T03:03:08;5.55;;;3.47;;
23988;SDS011;12202;52.136;5.592;2022-07-29T03:05:34;5.13;;;3.38;;
23988;SDS011;12202;52.136;5.592;2022-07-29T03:08:01;8.23;;;3.72;;
23988;SDS011;12202;52.136;5.592;2022-07-29T03:10:28;7.53;;;3.70;;
23988;SDS011;12202;52.136;5.592;2022-07-29T03:12:55;6.32;;;3.35;;
23988;SDS011;12202;52.136;5.592;2022-07-29T03:15:21;8.35;;;3.75;;
23988;SDS011;12202;52.136;5.592;2022-07-29T03:17:47;10.13;;;4.18;;
23988;SDS011;12202;52.136;5.592;2022-07-29T03:20:14;8.80;;;3.58;;
23988;SDS011;12202;52.136;5.592;2022-07-29T03:22:41;5.82;;;4.03;;
23988;SDS011;12202;52.136;5.592;2022-07-29T03:25:14;6.25;;;3.28;;
23988;SDS011;12202;52.136;5.592;2022-07-29T03:27:40;10.55;;;4.25;;
23988;SDS011;12202;52.136;5.592;2022-07-29T03:30:07;7.68;;;3.42;;
23988;SDS011;12202;52.136;5.592;2022-07-29T03:32:33;5.72;;;3.10;;
23988;SDS011;12202;52.136;5.592;2022-07-29T03:34:59;6.43;;;3.75;;
23988;SDS011;12202;52.136;5.592;2022-07-29T03:37:25;3.90;;;3.17;;
23988;SDS011;12202;52.136;5.592;2022-07-29T03:39:52;6.68;;;3.30;;
23988;SDS011;12202;52.136;5.592;2022-07-29T03:42:20;4.15;;;3.40;;
23988;SDS011;12202;52.136;5.592;2022-07-29T03:44:49;6.82;;;3.28;;
23988;SDS011;12202;52.136;5.592;2022-07-29T03:47:16;4.63;;;3.35;;
23988;SDS011;12202;52.136;5.592;2022-07-29T03:49:44;6.28;;;3.55;;
23988;SDS011;12202;52.136;5.592;2022-07-29T03:52:10;6.43;;;3.28;;
23988;SDS011;12202;52.136;5.592;2022-07-29T03:54:36;7.20;;;4.00;;
23988;SDS011;12202;52.136;5.592;2022-07-29T03:57:02;5.55;;;3.33;;
23988;SDS011;12202;52.136;5.592;2022-07-29T03:59:29;7.22;;;3.38;;
23988;SDS011;12202;52.136;5.592;2022-07-29T04:01:56;8.68;;;3.03;;
23988;SDS011;12202;52.136;5.592;2022-07-29T04:04:22;3.58;;;2.97;;
23988;SDS011;12202;52.136;5.592;2022-07-29T04:06:48;6.15;;;2.97;;
23988;SDS011;12202;52.136;5.592;2022-07-29T04:09:14;4.95;;;3.05;;
23988;SDS011;12202;52.136;5.592;2022-07-29T04:11:41;6.47;;;3.28;;
23988;SDS011;12202;52.136;5.592;2022-07-29T04:14:07;6.25;;;2.97;;
23988;SDS011;12202;52.136;5.592;2022-07-29T04:16:33;8.30;;;3.03;;
23988;SDS011;12202;52.136;5.592;2022-07-29T04:18:59;3.75;;;2.53;;
23988;SDS011;12202;52.136;5.592;2022-07-29T04:21:25;5.20;;;2.85;;
23988;SDS011;12202;52.136;5.592;2022-07-29T04:23:51;3.95;;;2.58;;
23988;SDS011;12202;52.136;5.592;2022-07-29T04:26:17;4.65;;;3.17;;
23988;SDS011;12202;52.136;5.592;2022-07-29T04:28:44;10.23;;;3.88;;
23988;SDS011;12202;52.136;5.592;2022-07-29T04:31:10;6.40;;;3.05;;
23988;SDS011;12202;52.136;5.592;2022-07-29T04:33:36;8.65;;;3.10;;
23988;SDS011;12202;52.136;5.592;2022-07-29T04:36:02;5.05;;;2.78;;
23988;SDS011;12202;52.136;5.592;2022-07-29T04:38:28;10.90;;;3.65;;
23988;SDS011;12202;52.136;5.592;2022-07-29T04:40:54;6.38;;;3.15;;
23988;SDS011;12202;52.136;5.592;2022-07-29T04:43:20;3.80;;;3.05;;
23988;SDS011;12202;52.136;5.592;2022-07-29T04:45:46;6.95;;;3.08;;
23988;SDS011;12202;52.136;5.592;2022-07-29T04:48:12;4.40;;;3.20;;
23988;SDS011;12202;52.136;5.592;2022-07-29T04:50:38;8.02;;;3.28;;
23988;SDS011;12202;52.136;5.592;2022-07-29T04:53:05;13.20;;;3.13;;
23988;SDS011;12202;52.136;5.592;2022-07-29T04:55:31;5.07;;;2.50;;
23988;SDS011;12202;52.136;5.592;2022-07-29T04:57:57;4.40;;;2.85;;
23988;SDS011;12202;52.136;5.592;2022-07-29T05:00:23;6.32;;;2.97;;
23988;SDS011;12202;52.136;5.592;2022-07-29T05:02:49;7.75;;;3.92;;
23988;SDS011;12202;52.136;5.592;2022-07-29T05:05:15;6.47;;;3.13;;
23988;SDS011;12202;52.136;5.592;2022-07-29T05:07:41;4.15;;;3.10;;
23988;SDS011;12202;52.136;5.592;2022-07-29T05:10:07;7.32;;;3.28;;
23988;SDS011;12202;52.136;5.592;2022-07-29T05:12:33;5.47;;;3.40;;
23988;SDS011;12202;52.136;5.592;2022-07-29T05:14:59;5.65;;;2.72;;
23988;SDS011;12202;52.136;5.592;2022-07-29T05:17:25;9.88;;;3.92;;
23988;SDS011;12202;52.136;5.592;2022-07-29T05:19:52;7.13;;;3.25;;
23988;SDS011;12202;52.136;5.592;2022-07-29T05:22:18;9.75;;;3.70;;
23988;SDS011;12202;52.136;5.592;2022-07-29T05:24:44;5.75;;;3.03;;
23988;SDS011;12202;52.136;5.592;2022-07-29T05:27:10;9.32;;;3.33;;
23988;SDS011;12202;52.136;5.592;2022-07-29T05:29:36;7.90;;;3.80;;
23988;SDS011;12202;52.136;5.592;2022-07-29T05:32:03;8.60;;;3.97;;
23988;SDS011;12202;52.136;5.592;2022-07-29T05:34:29;7.72;;;3.78;;
23988;SDS011;12202;52.136;5.592;2022-07-29T05:36:55;6.82;;;3.97;;
23988;SDS011;12202;52.136;5.592;2022-07-29T05:39:22;14.20;;;4.10;;
23988;SDS011;12202;52.136;5.592;2022-07-29T05:41:48;6.88;;;3.70;;
23988;SDS011;12202;52.136;5.592;2022-07-29T05:44:14;6.85;;;3.55;;
23988;SDS011;12202;52.136;5.592;2022-07-29T05:46:40;10.75;;;3.92;;
23988;SDS011;12202;52.136;5.592;2022-07-29T05:49:06;5.20;;;4.10;;
23988;SDS011;12202;52.136;5.592;2022-07-29T05:51:34;7.10;;;3.47;;
23988;SDS011;12202;52.136;5.592;2022-07-29T05:54:00;9.30;;;3.88;;
23988;SDS011;12202;52.136;5.592;2022-07-29T05:56:26;21.02;;;4.72;;
23988;SDS011;12202;52.136;5.592;2022-07-29T05:58:52;7.82;;;3.80;;
23988;SDS011;12202;52.136;5.592;2022-07-29T06:01:18;7.15;;;3.53;;
23988;SDS011;12202;52.136;5.592;2022-07-29T06:03:44;6.50;;;3.78;;
23988;SDS011;12202;52.136;5.592;2022-07-29T06:06:10;7.53;;;3.75;;
23988;SDS011;12202;52.136;5.592;2022-07-29T06:08:36;7.15;;;3.88;;
23988;SDS011;12202;52.136;5.592;2022-07-29T06:11:03;9.65;;;3.45;;
23988;SDS011;12202;52.136;5.592;2022-07-29T06:13:29;5.55;;;3.33;;
23988;SDS011;12202;52.136;5.592;2022-07-29T06:15:55;11.73;;;3.88;;
23988;SDS011;12202;52.136;5.592;2022-07-29T06:18:21;11.00;;;6.05;;
23988;SDS011;12202;52.136;5.592;2022-07-29T06:20:50;7.00;;;4.22;;
23988;SDS011;12202;52.136;5.592;2022-07-29T06:23:17;9.73;;;4.70;;
23988;SDS011;12202;52.136;5.592;2022-07-29T06:25:43;9.82;;;4.65;;
23988;SDS011;12202;52.136;5.592;2022-07-29T06:28:09;9.07;;;4.72;;
23988;SDS011;12202;52.136;5.592;2022-07-29T06:30:35;11.57;;;4.38;;
23988;SDS011;12202;52.136;5.592;2022-07-29T06:33:01;7.65;;;4.53;;
23988;SDS011;12202;52.136;5.592;2022-07-29T06:35:27;8.63;;;5.40;;
23988;SDS011;12202;52.136;5.592;2022-07-29T06:37:53;7.15;;;3.95;;
23988;SDS011;12202;52.136;5.592;2022-07-29T06:40:20;9.25;;;4.00;;
23988;SDS011;12202;52.136;5.592;2022-07-29T06:43:04;11.90;;;4.38;;
23988;SDS011;12202;52.136;5.592;2022-07-29T06:45:33;4.18;;;3.40;;
23988;SDS011;12202;52.136;5.592;2022-07-29T06:47:59;8.80;;;4.47;;
23988;SDS011;12202;52.136;5.592;2022-07-29T06:50:25;6.78;;;4.13;;
23988;SDS011;12202;52.136;5.592;2022-07-29T06:52:51;12.63;;;4.75;;
23988;SDS011;12202;52.136;5.592;2022-07-29T06:55:17;12.63;;;4.60;;
23988;SDS011;12202;52.136;5.592;2022-07-29T06:57:44;10.32;;;4.70;;
23988;SDS011;12202;52.136;5.592;2022-07-29T07:00:10;7.30;;;4.32;;
23988;SDS011;12202;52.136;5.592;2022-07-29T07:02:36;10.43;;;5.03;;
23988;SDS011;12202;52.136;5.592;2022-07-29T07:05:02;8.90;;;3.95;;
23988;SDS011;12202;52.136;5.592;2022-07-29T07:07:30;6.97;;;4.38;;
23988;SDS011;12202;52.136;5.592;2022-07-29T07:09:56;8.27;;;4.43;;
23988;SDS011;12202;52.136;5.592;2022-07-29T07:12:22;8.40;;;4.07;;
23988;SDS011;12202;52.136;5.592;2022-07-29T07:14:48;17.95;;;4.55;;
23988;SDS011;12202;52.136;5.592;2022-07-29T07:17:14;7.07;;;4.00;;
23988;SDS011;12202;52.136;5.592;2022-07-29T07:19:40;12.43;;;4.70;;
23988;SDS011;12202;52.136;5.592;2022-07-29T07:22:06;13.07;;;4.13;;
23988;SDS011;12202;52.136;5.592;2022-07-29T07:24:32;12.95;;;4.85;;
23988;SDS011;12202;52.136;5.592;2022-07-29T07:26:58;7.65;;;3.97;;
23988;SDS011;12202;52.136;5.592;2022-07-29T07:29:24;9.73;;;4.30;;
23988;SDS011;12202;52.136;5.592;2022-07-29T07:31:50;6.60;;;3.78;;
23988;SDS011;12202;52.136;5.592;2022-07-29T07:34:15;6.35;;;4.55;;
23988;SDS011;12202;52.136;5.592;2022-07-29T07:36:42;5.68;;;4.07;;
23988;SDS011;12202;52.136;5.592;2022-07-29T07:39:07;7.20;;;4.03;;
23988;SDS011;12202;52.136;5.592;2022-07-29T07:41:33;6.25;;;4.18;;
23988;SDS011;12202;52.136;5.592;2022-07-29T07:43:59;6.65;;;4.30;;
23988;SDS011;12202;52.136;5.592;2022-07-29T07:46:25;4.18;;;3.65;;
23988;SDS011;12202;52.136;5.592;2022-07-29T07:48:51;11.80;;;4.55;;
23988;SDS011;12202;52.136;5.592;2022-07-29T07:51:17;10.27;;;4.90;;
23988;SDS011;12202;52.136;5.592;2022-07-29T07:53:43;9.30;;;3.55;;
23988;SDS011;12202;52.136;5.592;2022-07-29T07:56:09;5.68;;;3.80;;
23988;SDS011;12202;52.136;5.592;2022-07-29T07:58:35;5.22;;;4.03;;
23988;SDS011;12202;52.136;5.592;2022-07-29T08:01:02;7.15;;;4.03;;
23988;SDS011;12202;52.136;5.592;2022-07-29T08:03:28;7.72;;;4.13;;
23988;SDS011;12202;52.136;5.592;2022-07-29T08:05:54;4.55;;;3.95;;
23988;SDS011;12202;52.136;5.592;2022-07-29T08:08:20;7.20;;;3.88;;
23988;SDS011;12202;52.136;5.592;2022-07-29T08:10:46;10.45;;;4.57;;
23988;SDS011;12202;52.136;5.592;2022-07-29T08:13:18;6.70;;;3.53;;
23988;SDS011;12202;52.136;5.592;2022-07-29T08:15:44;7.35;;;3.33;;
23988;SDS011;12202;52.136;5.592;2022-07-29T08:18:13;7.40;;;3.97;;
23988;SDS011;12202;52.136;5.592;2022-07-29T08:20:39;9.65;;;4.70;;
23988;SDS011;12202;52.136;5.592;2022-07-29T08:23:06;5.68;;;3.53;;
23988;SDS011;12202;52.136;5.592;2022-07-29T08:25:33;11.13;;;3.65;;
23988;SDS011;12202;52.136;5.592;2022-07-29T08:27:59;7.93;;;2.97;;
23988;SDS011;12202;52.136;5.592;2022-07-29T08:30:25;8.30;;;3.95;;
23988;SDS011;12202;52.136;5.592;2022-07-29T08:32:51;5.97;;;3.40;;
23988;SDS011;12202;52.136;5.592;2022-07-29T08:35:18;10.95;;;3.35;;
23988;SDS011;12202;52.136;5.592;2022-07-29T08:37:44;4.32;;;2.78;;
23988;SDS011;12202;52.136;5.592;2022-07-29T08:40:10;11.52;;;3.78;;
23988;SDS011;12202;52.136;5.592;2022-07-29T08:42:37;4.60;;;2.80;;
23988;SDS011;12202;52.136;5.592;2022-07-29T08:45:03;6.72;;;3.05;;
23988;SDS011;12202;52.136;5.592;2022-07-29T08:47:29;7.20;;;3.58;;
23988;SDS011;12202;52.136;5.592;2022-07-29T08:49:55;4.82;;;3.03;;
23988;SDS011;12202;52.136;5.592;2022-07-29T08:52:22;7.03;;;2.83;;
23988;SDS011;12202;52.136;5.592;2022-07-29T08:54:50;7.53;;;3.10;;
23988;SDS011;12202;52.136;5.592;2022-07-29T08:57:17;8.20;;;3.60;;
23988;SDS011;12202;52.136;5.592;2022-07-29T08:59:44;9.13;;;3.55;;
23988;SDS011;12202;52.136;5.592;2022-07-29T09:02:29;6.80;;;3.17;;
23988;SDS011;12202;52.136;5.592;2022-07-29T09:04:59;9.00;;;3.35;;
23988;SDS011;12202;52.136;5.592;2022-07-29T09:07:26;9.35;;;4.28;;
23988;SDS011;12202;52.136;5.592;2022-07-29T09:09:51;9.13;;;3.15;;
23988;SDS011;12202;52.136;5.592;2022-07-29T09:12:18;4.78;;;3.17;;
23988;SDS011;12202;52.136;5.592;2022-07-29T09:14:45;8.38;;;2.88;;
23988;SDS011;12202;52.136;5.592;2022-07-29T09:17:11;6.68;;;3.10;;
23988;SDS011;12202;52.136;5.592;2022-07-29T09:19:37;8.73;;;3.80;;
23988;SDS011;12202;52.136;5.592;2022-07-29T09:22:04;6.13;;;3.20;;
23988;SDS011;12202;52.136;5.592;2022-07-29T09:24:37;7.70;;;3.15;;
23988;SDS011;12202;52.136;5.592;2022-07-29T09:27:07;3.72;;;2.80;;
23988;SDS011;12202;52.136;5.592;2022-07-29T09:29:34;5.88;;;2.78;;
23988;SDS011;12202;52.136;5.592;2022-07-29T09:32:00;8.85;;;3.15;;
23988;SDS011;12202;52.136;5.592;2022-07-29T09:34:28;8.45;;;3.20;;
23988;SDS011;12202;52.136;5.592;2022-07-29T09:36:56;6.95;;;3.22;;
23988;SDS011;12202;52.136;5.592;2022-07-29T09:41:55;7.95;;;3.53;;
23988;SDS011;12202;52.136;5.592;2022-07-29T09:44:22;8.85;;;2.70;;
23988;SDS011;12202;52.136;5.592;2022-07-29T09:47:02;4.80;;;3.38;;
23988;SDS011;12202;52.136;5.592;2022-07-29T09:49:31;7.18;;;2.85;;
23988;SDS011;12202;52.136;5.592;2022-07-29T09:52:08;7.20;;;3.42;;
23988;SDS011;12202;52.136;5.592;2022-07-29T09:54:36;7.50;;;3.70;;
23988;SDS011;12202;52.136;5.592;2022-07-29T09:57:03;14.13;;;4.88;;
23988;SDS011;12202;52.136;5.592;2022-07-29T09:59:29;14.68;;;7.75;;
23988;SDS011;12202;52.136;5.592;2022-07-29T10:01:55;8.32;;;4.32;;
23988;SDS011;12202;52.136;5.592;2022-07-29T10:04:21;7.72;;;4.13;;
23988;SDS011;12202;52.136;5.592;2022-07-29T10:09:22;8.38;;;3.78;;
23988;SDS011;12202;52.136;5.592;2022-07-29T10:14:30;6.72;;;3.28;;
23988;SDS011;12202;52.136;5.592;2022-07-29T10:16:57;9.30;;;3.10;;
23988;SDS011;12202;52.136;5.592;2022-07-29T10:19:25;7.85;;;3.97;;
23988;SDS011;12202;52.136;5.592;2022-07-29T10:21:51;7.05;;;3.10;;
23988;SDS011;12202;52.136;5.592;2022-07-29T10:24:17;7.20;;;3.92;;
23988;SDS011;12202;52.136;5.592;2022-07-29T10:26:44;8.57;;;3.67;;
23988;SDS011;12202;52.136;5.592;2022-07-29T10:29:11;7.80;;;3.70;;
23988;SDS011;12202;52.136;5.592;2022-07-29T10:31:51;7.53;;;3.88;;
23988;SDS011;12202;52.136;5.592;2022-07-29T10:34:23;6.45;;;3.40;;
23988;SDS011;12202;52.136;5.592;2022-07-29T10:40:03;7.35;;;3.78;;
23988;SDS011;12202;52.136;5.592;2022-07-29T10:42:11;8.77;;;3.50;;
23988;SDS011;12202;52.136;5.592;2022-07-29T10:44:40;9.55;;;3.70;;
23988;SDS011;12202;52.136;5.592;2022-07-29T10:47:07;6.45;;;3.53;;
23988;SDS011;12202;52.136;5.592;2022-07-29T10:49:33;9.38;;;3.50;;
23988;SDS011;12202;52.136;5.592;2022-07-29T10:52:00;5.15;;;3.53;;
23988;SDS011;12202;52.136;5.592;2022-07-29T10:57:20;7.28;;;3.45;;
23988;SDS011;12202;52.136;5.592;2022-07-29T11:07:28;7.43;;;3.47;;
23988;SDS011;12202;52.136;5.592;2022-07-29T11:15:18;9.07;;;3.90;;
23988;SDS011;12202;52.136;5.592;2022-07-29T11:23:36;8.52;;;2.92;;
23988;SDS011;12202;52.136;5.592;2022-07-29T11:28:59;9.57;;;2.90;;
23988;SDS011;12202;52.136;5.592;2022-07-29T11:44:59;11.05;;;3.08;;
23988;SDS011;12202;52.136;5.592;2022-07-29T11:47:31;5.57;;;2.83;;
23988;SDS011;12202;52.136;5.592;2022-07-29T11:49:58;10.23;;;4.20;;
23988;SDS011;12202;52.136;5.592;2022-07-29T11:52:34;5.88;;;3.60;;
23988;SDS011;12202;52.136;5.592;2022-07-29T11:55:03;10.38;;;3.67;;
23988;SDS011;12202;52.136;5.592;2022-07-29T11:57:29;12.25;;;3.42;;
23988;SDS011;12202;52.136;5.592;2022-07-29T11:59:55;9.60;;;3.85;;
23988;SDS011;12202;52.136;5.592;2022-07-29T12:02:23;5.50;;;2.88;;
23988;SDS011;12202;52.136;5.592;2022-07-29T12:04:53;8.35;;;3.03;;
23988;SDS011;12202;52.136;5.592;2022-07-29T12:07:32;6.35;;;3.63;;
23988;SDS011;12202;52.136;5.592;2022-07-29T12:09:58;8.63;;;2.88;;
23988;SDS011;12202;52.136;5.592;2022-07-29T12:12:25;7.90;;;3.60;;
23988;SDS011;12202;52.136;5.592;2022-07-29T12:14:51;9.45;;;4.18;;
23988;SDS011;12202;52.136;5.592;2022-07-29T12:19:52;4.22;;;2.97;;
23988;SDS011;12202;52.136;5.592;2022-07-29T12:25:14;5.70;;;3.42;;
23988;SDS011;12202;52.136;5.592;2022-07-29T12:27:42;7.18;;;3.28;;
23988;SDS011;12202;52.136;5.592;2022-07-29T12:30:12;13.05;;;3.95;;
23988;SDS011;12202;52.136;5.592;2022-07-29T12:32:41;10.85;;;3.50;;
23988;SDS011;12202;52.136;5.592;2022-07-29T12:35:11;5.80;;;2.95;;
23988;SDS011;12202;52.136;5.592;2022-07-29T12:37:38;9.57;;;3.88;;
23988;SDS011;12202;52.136;5.592;2022-07-29T12:40:06;11.60;;;3.72;;
23988;SDS011;12202;52.136;5.592;2022-07-29T12:42:32;11.90;;;3.60;;
23988;SDS011;12202;52.136;5.592;2022-07-29T12:44:58;14.75;;;3.83;;
23988;SDS011;12202;52.136;5.592;2022-07-29T12:47:24;13.85;;;3.70;;
23988;SDS011;12202;52.136;5.592;2022-07-29T12:49:50;7.20;;;4.55;;
23988;SDS011;12202;52.136;5.592;2022-07-29T12:52:26;5.15;;;3.28;;
23988;SDS011;12202;52.136;5.592;2022-07-29T12:54:53;9.27;;;4.30;;
23988;SDS011;12202;52.136;5.592;2022-07-29T12:57:19;7.47;;;3.80;;
23988;SDS011;12202;52.136;5.592;2022-07-29T12:59:58;6.70;;;2.90;;
23988;SDS011;12202;52.136;5.592;2022-07-29T13:02:24;6.60;;;3.30;;
23988;SDS011;12202;52.136;5.592;2022-07-29T13:04:57;8.85;;;3.83;;
23988;SDS011;12202;52.136;5.592;2022-07-29T13:07:27;6.72;;;3.65;;
23988;SDS011;12202;52.136;5.592;2022-07-29T13:09:54;11.75;;;3.95;;
23988;SDS011;12202;52.136;5.592;2022-07-29T13:12:20;11.57;;;4.00;;
23988;SDS011;12202;52.136;5.592;2022-07-29T13:14:47;8.10;;;3.55;;
23988;SDS011;12202;52.136;5.592;2022-07-29T13:22:08;12.50;;;4.75;;
23988;SDS011;12202;52.136;5.592;2022-07-29T13:24:44;8.57;;;4.25;;
23988;SDS011;12202;52.136;5.592;2022-07-29T13:27:10;5.47;;;2.63;;
23988;SDS011;12202;52.136;5.592;2022-07-29T13:29:36;8.25;;;3.63;;
23988;SDS011;12202;52.136;5.592;2022-07-29T13:32:05;14.95;;;3.53;;
23988;SDS011;12202;52.136;5.592;2022-07-29T13:34:31;5.82;;;3.20;;
23988;SDS011;12202;52.136;5.592;2022-07-29T13:36:56;8.73;;;3.25;;
23988;SDS011;12202;52.136;5.592;2022-07-29T13:39:22;7.70;;;2.67;;
23988;SDS011;12202;52.136;5.592;2022-07-29T13:41:48;6.47;;;3.28;;
23988;SDS011;12202;52.136;5.592;2022-07-29T13:44:14;9.63;;;3.92;;
23988;SDS011;12202;52.136;5.592;2022-07-29T13:46:40;4.88;;;3.17;;
23988;SDS011;12202;52.136;5.592;2022-07-29T13:49:06;11.60;;;3.95;;
23988;SDS011;12202;52.136;5.592;2022-07-29T13:51:32;6.10;;;2.85;;
23988;SDS011;12202;52.136;5.592;2022-07-29T13:53:58;8.75;;;3.33;;
23988;SDS011;12202;52.136;5.592;2022-07-29T13:56:24;5.30;;;3.08;;
23988;SDS011;12202;52.136;5.592;2022-07-29T13:58:51;9.00;;;3.08;;
23988;SDS011;12202;52.136;5.592;2022-07-29T14:01:17;10.57;;;3.35;;
23988;SDS011;12202;52.136;5.592;2022-07-29T14:03:42;8.23;;;3.40;;
23988;SDS011;12202;52.136;5.592;2022-07-29T14:06:08;6.88;;;3.83;;
23988;SDS011;12202;52.136;5.592;2022-07-29T14:08:34;5.63;;;3.28;;
23988;SDS011;12202;52.136;5.592;2022-07-29T14:11:00;9.43;;;3.40;;
23988;SDS011;12202;52.136;5.592;2022-07-29T14:13:26;5.82;;;2.75;;
23988;SDS011;12202;52.136;5.592;2022-07-29T14:15:52;10.88;;;3.83;;
23988;SDS011;12202;52.136;5.592;2022-07-29T14:18:18;5.22;;;2.72;;
23988;SDS011;12202;52.136;5.592;2022-07-29T14:20:44;5.70;;;2.65;;
23988;SDS011;12202;52.136;5.592;2022-07-29T14:23:10;3.28;;;2.47;;
23988;SDS011;12202;52.136;5.592;2022-07-29T14:25:36;5.25;;;2.50;;
23988;SDS011;12202;52.136;5.592;2022-07-29T14:28:02;8.38;;;2.72;;
23988;SDS011;12202;52.136;5.592;2022-07-29T14:30:28;7.55;;;2.47;;
23988;SDS011;12202;52.136;5.592;2022-07-29T14:32:54;6.40;;;2.60;;
23988;SDS011;12202;52.136;5.592;2022-07-29T14:35:20;6.78;;;2.67;;
23988;SDS011;12202;52.136;5.592;2022-07-29T14:37:46;6.70;;;3.20;;
23988;SDS011;12202;52.136;5.592;2022-07-29T14:40:12;9.02;;;3.00;;
23988;SDS011;12202;52.136;5.592;2022-07-29T14:42:38;7.50;;;2.80;;
23988;SDS011;12202;52.136;5.592;2022-07-29T14:45:05;5.05;;;2.17;;
23988;SDS011;12202;52.136;5.592;2022-07-29T14:47:31;8.70;;;2.50;;
23988;SDS011;12202;52.136;5.592;2022-07-29T14:49:57;8.07;;;2.55;;
23988;SDS011;12202;52.136;5.592;2022-07-29T14:52:23;6.72;;;2.70;;
23988;SDS011;12202;52.136;5.592;2022-07-29T14:54:49;6.10;;;2.70;;
23988;SDS011;12202;52.136;5.592;2022-07-29T14:57:15;9.63;;;3.00;;
23988;SDS011;12202;52.136;5.592;2022-07-29T14:59:41;4.60;;;2.33;;
23988;SDS011;12202;52.136;5.592;2022-07-29T15:02:07;8.55;;;2.88;;
23988;SDS011;12202;52.136;5.592;2022-07-29T15:04:33;4.55;;;2.45;;
23988;SDS011;12202;52.136;5.592;2022-07-29T15:06:59;9.57;;;2.67;;
23988;SDS011;12202;52.136;5.592;2022-07-29T15:09:25;5.85;;;2.63;;
23988;SDS011;12202;52.136;5.592;2022-07-29T15:11:51;7.32;;;2.42;;
23988;SDS011;12202;52.136;5.592;2022-07-29T15:14:17;9.80;;;2.60;;
23988;SDS011;12202;52.136;5.592;2022-07-29T15:16:43;7.60;;;2.60;;
23988;SDS011;12202;52.136;5.592;2022-07-29T15:19:09;5.10;;;2.00;;
23988;SDS011;12202;52.136;5.592;2022-07-29T15:21:35;7.78;;;2.83;;
23988;SDS011;12202;52.136;5.592;2022-07-29T15:24:01;5.68;;;3.17;;
23988;SDS011;12202;52.136;5.592;2022-07-29T15:26:27;4.85;;;2.35;;
23988;SDS011;12202;52.136;5.592;2022-07-29T15:28:53;6.82;;;2.78;;
23988;SDS011;12202;52.136;5.592;2022-07-29T15:31:22;7.07;;;2.63;;
23988;SDS011;12202;52.136;5.592;2022-07-29T15:33:48;9.90;;;2.72;;
23988;SDS011;12202;52.136;5.592;2022-07-29T15:36:14;6.45;;;2.88;;
23988;SDS011;12202;52.136;5.592;2022-07-29T15:38:40;6.32;;;2.83;;
23988;SDS011;12202;52.136;5.592;2022-07-29T15:41:06;8.18;;;3.60;;
23988;SDS011;12202;52.136;5.592;2022-07-29T15:43:32;10.55;;;3.83;;
23988;SDS011;12202;52.136;5.592;2022-07-29T15:46:00;8.25;;;3.22;;
23988;SDS011;12202;52.136;5.592;2022-07-29T15:48:45;7.53;;;3.72;;
23988;SDS011;12202;52.136;5.592;2022-07-29T15:51:10;10.32;;;3.58;;
23988;SDS011;12202;52.136;5.592;2022-07-29T15:53:36;8.63;;;3.60;;
23988;SDS011;12202;52.136;5.592;2022-07-29T15:56:02;7.63;;;4.03;;